Time;durP1;ratioP1;P1;durP2;ratioP2;P2;SDS_P1;SDS_P2;PMS_P1;PMS_P2;Temp;Humidity;BMP_temperature;BMP_pressure;BME280_temperature;BME280_humidity;BME280_pressure;Samples;Min_cycle;Max_cycle;Signal;HPM_P1;HPM_P2
2023/05/23 00:01:26;;;;;;;11.67;6.13;;;17.90;98.00;;;;;;5032666;28;20456;-65
2023/05/23 00:03:54;;;;;;;11.33;5.50;;;17.80;98.00;;;;;;5032695;28;21059;-64
2023/05/23 00:06:21;;;;;;;12.77;6.40;;;17.70;98.00;;;;;;5032500;28;20542;-65
2023/05/23 00:08:49;;;;;;;16.50;6.13;;;17.80;98.00;;;;;;5032828;28;20459;-64
2023/05/23 00:11:18;;;;;;;15.53;6.70;;;17.80;98.00;;;;;;5032602;28;20516;-65
2023/05/23 00:13:45;;;;;;;11.17;5.40;;;17.60;98.00;;;;;;5032751;28;20505;-65
2023/05/23 00:16:13;;;;;;;19.37;5.40;;;17.60;98.00;;;;;;5032632;28;20522;-64
2023/05/23 00:18:41;;;;;;;13.20;6.40;;;17.60;98.00;;;;;;5032521;28;20459;-64
2023/05/23 00:21:09;;;;;;;13.13;5.93;;;17.40;98.00;;;;;;5032647;28;20470;-64
2023/05/23 00:23:37;;;;;;;12.27;6.20;;;17.50;98.00;;;;;;5032570;28;20482;-64
2023/05/23 00:26:04;;;;;;;13.27;6.00;;;17.40;98.00;;;;;;5032455;28;20478;-65
2023/05/23 00:28:31;;;;;;;16.13;7.83;;;17.50;98.00;;;;;;5032426;28;20466;-64
2023/05/23 00:30:58;;;;;;;15.17;6.10;;;17.70;98.00;;;;;;5032531;28;20458;-65
2023/05/23 00:33:28;;;;;;;15.77;6.50;;;17.80;98.00;;;;;;5032637;28;20457;-64
2023/05/23 00:35:55;;;;;;;13.67;6.30;;;17.80;98.00;;;;;;5032533;28;20872;-64
2023/05/23 00:38:22;;;;;;;15.03;7.40;;;17.80;98.00;;;;;;5032218;28;20830;-65
2023/05/23 00:40:49;;;;;;;12.33;6.63;;;17.70;98.00;;;;;;5032281;28;20458;-64
2023/05/23 00:43:17;;;;;;;15.30;6.40;;;17.60;98.00;;;;;;5032168;28;20458;-65
2023/05/23 00:45:44;;;;;;;15.70;6.90;;;17.50;98.00;;;;;;5032205;28;20533;-66
2023/05/23 00:48:11;;;;;;;14.23;7.10;;;17.40;98.00;;;;;;5032417;28;20451;-64
2023/05/23 00:50:40;;;;;;;14.73;7.10;;;17.50;98.00;;;;;;5032304;28;20494;-65
2023/05/23 00:53:08;;;;;;;16.33;6.80;;;17.60;98.00;;;;;;5032341;28;20454;-64
2023/05/23 00:55:35;;;;;;;12.73;5.73;;;17.60;98.00;;;;;;5032267;28;20482;-65
2023/05/23 00:58:02;;;;;;;13.40;6.40;;;17.60;98.00;;;;;;5031531;28;21217;-65
2023/05/23 01:00:29;;;;;;;12.83;5.90;;;17.50;98.00;;;;;;5032157;28;20813;-65
2023/05/23 01:02:56;;;;;;;14.13;6.67;;;17.40;98.00;;;;;;5031876;28;20446;-65
2023/05/23 01:05:25;;;;;;;11.70;6.00;;;17.30;98.00;;;;;;5031834;28;20489;-64
2023/05/23 01:07:54;;;;;;;14.33;6.80;;;17.30;98.00;;;;;;5032007;28;20463;-65
2023/05/23 01:10:25;;;;;;;13.57;6.70;;;17.20;98.00;;;;;;5031790;28;20964;-63
2023/05/23 01:13:13;;;;;;;14.63;7.43;;;17.10;98.00;;;;;;5031903;28;20466;-64
2023/05/23 01:15:45;;;;;;;15.97;6.70;;;17.10;98.00;;;;;;5031967;28;20843;-65
2023/05/23 01:18:16;;;;;;;21.00;7.63;;;17.10;98.00;;;;;;5030627;28;20489;-64
2023/05/23 01:20:49;;;;;;;13.60;6.33;;;17.10;98.00;;;;;;5031826;28;20462;-65
2023/05/23 01:24:01;;;;;;;14.70;7.00;;;17.20;98.00;;;;;;5031829;28;20831;-65
2023/05/23 01:26:53;;;;;;;24.27;8.70;;;17.20;98.00;;;;;;4986174;28;20494;-64
2023/05/23 01:29:25;;;;;;;17.47;7.40;;;17.20;98.00;;;;;;5031827;28;20474;-64
2023/05/23 01:31:55;;;;;;;18.37;7.67;;;17.30;98.00;;;;;;5031858;28;20474;-64
2023/05/23 01:34:23;;;;;;;15.20;7.30;;;17.30;98.00;;;;;;5031969;28;20462;-65
2023/05/23 01:36:54;;;;;;;16.57;7.17;;;17.20;98.00;;;;;;5031737;28;20455;-65
2023/05/23 01:39:21;;;;;;;17.27;7.30;;;17.10;98.00;;;;;;5031793;28;20469;-64
2023/05/23 01:41:50;;;;;;;15.20;7.00;;;17.10;98.00;;;;;;5031665;28;20513;-64
2023/05/23 01:44:17;;;;;;;20.43;8.07;;;17.10;98.00;;;;;;5031680;28;20455;-64
2023/05/23 01:46:47;;;;;;;15.90;7.50;;;17.10;98.00;;;;;;5031551;28;20493;-65
2023/05/23 01:49:15;;;;;;;22.30;9.33;;;17.20;98.00;;;;;;5031770;28;20470;-65
2023/05/23 01:51:42;;;;;;;12.70;6.77;;;17.20;98.00;;;;;;5031494;28;20553;-64
2023/05/23 01:54:10;;;;;;;19.80;8.40;;;17.20;98.00;;;;;;5031333;28;20455;-64
2023/05/23 01:56:41;;;;;;;17.20;8.00;;;17.20;98.00;;;;;;5031492;28;20526;-64
2023/05/23 01:59:09;;;;;;;14.43;7.23;;;17.10;98.00;;;;;;5031322;28;20562;-65
2023/05/23 02:01:37;;;;;;;19.10;8.23;;;17.20;98.00;;;;;;5031359;28;20505;-64
2023/05/23 02:04:05;;;;;;;24.90;9.50;;;17.20;98.00;;;;;;5030255;28;20459;-64
2023/05/23 02:06:33;;;;;;;22.53;9.43;;;17.20;98.00;;;;;;5031224;28;20486;-64
2023/05/23 02:09:00;;;;;;;15.10;7.80;;;17.20;98.00;;;;;;5033252;28;20912;-64
2023/05/23 02:11:27;;;;;;;31.20;11.37;;;17.20;98.00;;;;;;5035063;28;20961;-65
2023/05/23 02:13:54;;;;;;;34.60;11.73;;;17.40;98.00;;;;;;5035096;28;20454;-63
2023/05/23 02:16:22;;;;;;;29.67;12.07;;;17.40;98.00;;;;;;5035014;28;20465;-65
2023/05/23 02:18:52;;;;;;;35.83;13.20;;;17.60;98.00;;;;;;5034847;28;20446;-65
2023/05/23 02:21:20;;;;;;;29.83;10.93;;;17.80;98.00;;;;;;5035131;28;20451;-64
2023/05/23 02:23:47;;;;;;;26.33;10.80;;;18.00;98.00;;;;;;5033353;28;20879;-66
2023/05/23 02:26:15;;;;;;;26.87;10.80;;;18.00;98.00;;;;;;5034847;28;20984;-65
2023/05/23 02:28:42;;;;;;;26.07;10.07;;;18.10;98.00;;;;;;5034804;28;20462;-64
2023/05/23 02:31:09;;;;;;;25.20;10.80;;;18.10;98.00;;;;;;5034954;28;20454;-64
2023/05/23 02:33:38;;;;;;;28.00;11.53;;;18.10;98.00;;;;;;5034792;28;20885;-65
2023/05/23 02:36:35;;;;;;;30.63;11.33;;;18.00;98.00;;;;;;5034325;28;20462;-64
2023/05/23 02:39:05;;;;;;;29.90;11.07;;;18.00;98.00;;;;;;5034928;28;20454;-64
2023/05/23 02:41:32;;;;;;;32.53;12.07;;;18.00;98.00;;;;;;5034720;28;20589;-64
2023/05/23 02:43:59;;;;;;;29.57;12.97;;;17.90;98.00;;;;;;5034679;28;20462;-65
2023/05/23 02:46:26;;;;;;;35.03;13.30;;;17.80;98.00;;;;;;5034442;28;20490;-66
2023/05/23 02:48:53;;;;;;;28.37;12.27;;;17.80;98.00;;;;;;5034316;28;20458;-65
2023/05/23 02:51:20;;;;;;;33.70;11.67;;;17.80;98.00;;;;;;5034536;28;20455;-65
2023/05/23 02:53:47;;;;;;;31.03;12.37;;;17.90;98.00;;;;;;5034233;28;20455;-64
2023/05/23 02:56:16;;;;;;;35.10;11.80;;;18.10;98.00;;;;;;5034269;28;20912;-65
2023/05/23 02:58:43;;;;;;;28.97;11.77;;;18.20;98.00;;;;;;5034232;28;20454;-64
2023/05/23 03:01:10;;;;;;;37.70;13.10;;;18.10;98.00;;;;;;5034137;28;20458;-64
2023/05/23 03:03:38;;;;;;;33.00;11.20;;;18.00;98.00;;;;;;5034043;28;20549;-65
2023/05/23 03:06:06;;;;;;;32.50;12.80;;;18.00;98.00;;;;;;5033980;28;21035;-65
2023/05/23 03:08:33;;;;;;;32.37;12.70;;;18.00;98.00;;;;;;5032708;28;20526;-65
2023/05/23 03:11:00;;;;;;;38.70;13.07;;;17.90;98.00;;;;;;5033815;28;20485;-64
2023/05/23 03:13:28;;;;;;;29.23;11.47;;;18.00;98.00;;;;;;5034068;28;20458;-64
2023/05/23 03:15:56;;;;;;;32.83;12.13;;;18.00;98.00;;;;;;5033862;28;20455;-65
2023/05/23 03:18:23;;;;;;;30.70;11.40;;;18.00;98.00;;;;;;5033917;28;20459;-64
2023/05/23 03:20:50;;;;;;;31.97;12.33;;;18.10;98.00;;;;;;5033480;28;20459;-64
2023/05/23 03:23:17;;;;;;;42.00;13.57;;;18.20;98.00;;;;;;5033565;28;20508;-65
2023/05/23 03:25:44;;;;;;;33.37;11.77;;;18.20;98.00;;;;;;5033655;28;20493;-64
2023/05/23 03:28:12;;;;;;;34.90;11.90;;;18.10;98.00;;;;;;5033789;28;20463;-64
2023/05/23 03:30:42;;;;;;;27.93;10.93;;;18.20;98.00;;;;;;5033960;28;20462;-64
2023/05/23 03:33:11;;;;;;;43.23;13.13;;;18.20;98.00;;;;;;5033725;28;20516;-64
2023/05/23 03:35:39;;;;;;;33.67;12.30;;;18.10;98.00;;;;;;5034012;28;20480;-64
2023/05/23 03:38:06;;;;;;;32.77;12.83;;;18.10;98.00;;;;;;5033763;28;20466;-64
2023/05/23 03:40:33;;;;;;;34.90;12.07;;;18.10;98.00;;;;;;5033338;28;20505;-65
2023/05/23 03:43:04;;;;;;;33.73;12.30;;;18.00;98.00;;;;;;5033209;28;20459;-64
2023/05/23 03:45:34;;;;;;;26.30;11.63;;;18.10;98.00;;;;;;5033351;28;20528;-65
2023/05/23 03:48:02;;;;;;;42.27;14.30;;;18.00;98.00;;;;;;5036855;28;20462;-64
2023/05/23 03:50:33;;;;;;;38.20;13.97;;;18.10;98.00;;;;;;5053149;28;20453;-64
2023/05/23 03:53:00;;;;;;;33.37;12.70;;;18.00;98.00;;;;;;5052792;28;20869;-65
2023/05/23 03:55:30;;;;;;;33.10;12.93;;;18.00;98.00;;;;;;5051771;28;20472;-65
2023/05/23 03:57:57;;;;;;;32.20;11.80;;;18.00;98.00;;;;;;5052893;28;20519;-65
2023/05/23 04:00:25;;;;;;;39.60;14.57;;;18.00;98.00;;;;;;5052895;28;20794;-65
2023/05/23 04:02:52;;;;;;;34.30;13.50;;;17.90;98.00;;;;;;5052834;28;20462;-64
2023/05/23 04:05:21;;;;;;;35.43;12.90;;;17.80;98.00;;;;;;5052687;28;20449;-65
2023/05/23 04:07:48;;;;;;;36.27;14.33;;;17.90;98.00;;;;;;5052888;28;20541;-65
2023/05/23 04:10:16;;;;;;;36.00;13.37;;;17.90;98.00;;;;;;5052759;28;20449;-64
2023/05/23 04:12:43;;;;;;;38.80;13.70;;;18.00;98.00;;;;;;5052703;28;20458;-64
2023/05/23 04:15:11;;;;;;;41.87;14.70;;;18.10;98.00;;;;;;5052763;28;20457;-64
2023/05/23 04:17:39;;;;;;;47.20;13.97;;;18.00;98.00;;;;;;5052383;28;20511;-65
2023/05/23 04:20:09;;;;;;;45.17;14.40;;;18.20;98.00;;;;;;5052894;28;21104;-65
2023/05/23 04:22:38;;;;;;;38.50;14.67;;;18.20;98.00;;;;;;5052571;28;20463;-66
2023/05/23 04:25:06;;;;;;;38.00;14.63;;;18.10;98.00;;;;;;5052658;28;20462;-64
2023/05/23 04:27:33;;;;;;;36.20;13.10;;;17.90;98.00;;;;;;5052466;28;20478;-65
2023/05/23 04:30:00;;;;;;;35.70;13.27;;;17.90;98.00;;;;;;5052665;28;20489;-66
2023/05/23 04:32:27;;;;;;;36.63;13.17;;;17.90;98.00;;;;;;5052006;28;20458;-64
2023/05/23 04:34:55;;;;;;;41.33;13.73;;;17.90;98.00;;;;;;5052562;28;20461;-64
2023/05/23 04:37:24;;;;;;;35.50;13.47;;;18.00;98.00;;;;;;5052110;28;20450;-65
2023/05/23 04:39:53;;;;;;;37.23;13.80;;;18.10;98.00;;;;;;5052494;28;20507;-64
2023/05/23 04:42:23;;;;;;;38.90;13.83;;;18.20;98.00;;;;;;5052024;28;21045;-65
2023/05/23 04:44:51;;;;;;;35.80;13.80;;;18.30;98.00;;;;;;5052042;28;20465;-64
2023/05/23 04:47:23;;;;;;;42.50;14.47;;;18.30;98.00;;;;;;5051837;28;20533;-64
2023/05/23 04:49:52;;;;;;;36.63;13.60;;;18.30;98.00;;;;;;5052127;28;20465;-64
2023/05/23 04:52:20;;;;;;;41.60;15.17;;;18.30;98.00;;;;;;5051947;28;20449;-65
2023/05/23 04:54:47;;;;;;;36.60;14.60;;;18.40;98.00;;;;;;5051931;28;20465;-64
2023/05/23 04:57:16;;;;;;;41.37;13.00;;;18.40;98.00;;;;;;5050671;28;20476;-63
2023/05/23 04:59:43;;;;;;;39.93;14.13;;;18.40;98.00;;;;;;5052037;28;20456;-64
2023/05/23 05:02:10;;;;;;;45.17;15.07;;;18.40;98.00;;;;;;5050607;28;20469;-64
2023/05/23 05:04:44;;;;;;;41.43;16.30;;;18.40;98.00;;;;;;5050787;28;21077;-64
2023/05/23 05:07:11;;;;;;;47.40;15.83;;;18.30;98.00;;;;;;5051739;28;20484;-66
2023/05/23 05:09:39;;;;;;;41.17;15.17;;;18.40;98.00;;;;;;5051793;28;20457;-66
2023/05/23 05:12:06;;;;;;;39.93;15.50;;;18.40;98.00;;;;;;5051782;28;20489;-64
2023/05/23 05:14:35;;;;;;;40.27;14.30;;;18.40;98.00;;;;;;5051902;28;21009;-63
2023/05/23 05:17:02;;;;;;;39.40;14.50;;;18.40;98.00;;;;;;5051713;28;20458;-65
2023/05/23 05:19:30;;;;;;;43.17;15.63;;;18.20;98.00;;;;;;5051855;28;20465;-63
2023/05/23 05:21:58;;;;;;;39.97;15.03;;;18.20;98.00;;;;;;5051668;28;20537;-64
2023/05/23 05:24:26;;;;;;;47.40;15.30;;;18.10;98.00;;;;;;5051955;28;20471;-63
2023/05/23 05:26:55;;;;;;;36.67;14.80;;;18.20;98.00;;;;;;5051888;28;20485;-63
2023/05/23 05:29:22;;;;;;;37.93;14.97;;;18.30;98.00;;;;;;5050529;28;20536;-64
2023/05/23 05:31:52;;;;;;;44.43;16.73;;;18.40;98.00;;;;;;5051529;28;20932;-64
2023/05/23 05:34:20;;;;;;;40.73;15.27;;;18.30;98.00;;;;;;5051183;28;20843;-64
2023/05/23 05:36:47;;;;;;;37.80;16.00;;;18.40;98.00;;;;;;5051338;28;20520;-65
2023/05/23 05:39:14;;;;;;;50.23;17.47;;;18.50;98.00;;;;;;5051485;28;20515;-64
2023/05/23 05:41:41;;;;;;;46.37;15.70;;;18.50;98.00;;;;;;5051414;28;20452;-64
2023/05/23 05:44:08;;;;;;;51.13;16.47;;;18.50;98.00;;;;;;5053596;28;20454;-65
2023/05/23 05:46:36;;;;;;;40.27;14.80;;;18.40;98.00;;;;;;5055331;28;20901;-64
2023/05/23 05:49:05;;;;;;;44.00;14.90;;;18.50;98.00;;;;;;5055256;28;20449;-64
2023/05/23 05:51:32;;;;;;;42.30;15.80;;;18.40;98.00;;;;;;5055481;28;20883;-64
2023/05/23 05:54:00;;;;;;;45.23;17.47;;;18.50;98.00;;;;;;5054195;28;20476;-65
2023/05/23 05:56:27;;;;;;;42.53;15.90;;;18.60;98.00;;;;;;5055494;28;20465;-65
2023/05/23 05:58:54;;;;;;;38.90;15.73;;;18.70;98.00;;;;;;5055359;28;20458;-64
2023/05/23 06:01:21;;;;;;;58.67;16.90;;;18.70;98.00;;;;;;5055240;28;20507;-59
2023/05/23 06:03:48;;;;;;;42.40;14.97;;;18.80;98.00;;;;;;5054080;28;20460;-59
2023/05/23 06:06:16;;;;;;;49.30;15.30;;;18.80;98.00;;;;;;5055149;28;20481;-59
2023/05/23 06:08:44;;;;;;;45.50;16.20;;;18.90;98.00;;;;;;5055250;28;20507;-59
2023/05/23 06:11:12;;;;;;;39.67;15.27;;;19.00;98.00;;;;;;5055215;28;20800;-59
2023/05/23 06:13:39;;;;;;;40.90;15.40;;;19.00;98.00;;;;;;5055218;28;20556;-59
2023/05/23 06:16:06;;;;;;;41.80;15.40;;;19.10;98.00;;;;;;5055152;28;20469;-59
2023/05/23 06:18:34;;;;;;;37.67;14.50;;;19.00;98.00;;;;;;5055231;28;20881;-59
2023/05/23 06:21:01;;;;;;;38.10;13.43;;;19.00;98.00;;;;;;5055213;28;20458;-59
2023/05/23 06:23:30;;;;;;;37.13;14.50;;;19.10;98.00;;;;;;5055185;28;20465;-59
2023/05/23 06:25:57;;;;;;;36.87;13.60;;;19.20;98.00;;;;;;5054660;28;20458;-59
2023/05/23 06:28:25;;;;;;;40.50;14.43;;;19.20;98.00;;;;;;5054756;28;20485;-59
2023/05/23 06:30:52;;;;;;;35.97;14.63;;;19.30;98.00;;;;;;5053358;28;20519;-58
2023/05/23 06:33:20;;;;;;;34.07;14.23;;;19.30;98.00;;;;;;5054407;28;20473;-59
2023/05/23 06:35:47;;;;;;;38.90;14.60;;;19.40;98.00;;;;;;5054706;28;20480;-59
2023/05/23 06:38:14;;;;;;;33.27;13.43;;;19.50;98.00;;;;;;5053314;28;20465;-59
2023/05/23 06:40:44;;;;;;;39.43;14.27;;;19.50;98.00;;;;;;5054691;28;20797;-60
2023/05/23 06:43:11;;;;;;;35.27;13.20;;;19.50;98.00;;;;;;5054287;28;20466;-59
2023/05/23 06:45:38;;;;;;;41.40;14.80;;;19.50;98.00;;;;;;5055812;28;20526;-59
2023/05/23 06:48:05;;;;;;;31.47;13.17;;;19.50;98.00;;;;;;5054506;28;20477;-58
2023/05/23 06:50:36;;;;;;;30.67;11.57;;;19.50;98.00;;;;;;5054606;28;20466;-59
2023/05/23 06:53:03;;;;;;;35.43;14.30;;;19.50;98.00;;;;;;5054061;28;20461;-59
2023/05/23 06:55:32;;;;;;;31.73;13.10;;;19.50;98.00;;;;;;5053396;28;20465;-60
2023/05/23 06:58:07;;;;;;;36.93;15.00;;;19.50;98.00;;;;;;5054151;28;20465;-59
2023/05/23 07:00:34;;;;;;;32.37;14.37;;;19.50;98.00;;;;;;5053831;28;20484;-59
2023/05/23 07:03:02;;;;;;;32.87;14.40;;;19.50;98.00;;;;;;5053416;28;20453;-59
2023/05/23 07:05:29;;;;;;;37.43;14.33;;;19.40;98.00;;;;;;5052100;28;20462;-59
2023/05/23 07:07:56;;;;;;;32.87;14.10;;;19.30;98.00;;;;;;5052034;28;20478;-60
2023/05/23 07:10:25;;;;;;;37.90;14.17;;;19.30;98.00;;;;;;5053423;28;20458;-59
2023/05/23 07:12:53;;;;;;;34.20;14.33;;;19.20;98.00;;;;;;5053362;28;20453;-58
2023/05/23 07:15:21;;;;;;;40.47;16.17;;;19.20;98.00;;;;;;5053530;28;20881;-59
2023/05/23 07:17:48;;;;;;;42.60;15.47;;;19.30;98.00;;;;;;5041701;28;20505;-59
2023/05/23 07:20:15;;;;;;;44.03;15.97;;;19.30;98.00;;;;;;5032819;28;20485;-59
2023/05/23 07:22:44;;;;;;;39.40;15.40;;;19.40;98.00;;;;;;5032991;28;20992;-59
2023/05/23 07:25:14;;;;;;;41.23;16.43;;;19.40;98.00;;;;;;5032881;28;20462;-59
2023/05/23 07:27:41;;;;;;;37.10;14.07;;;19.40;98.00;;;;;;5032773;28;21026;-59
2023/05/23 07:30:10;;;;;;;18.70;7.93;;;19.40;98.00;;;;;;5032674;28;20465;-59
2023/05/23 07:32:39;;;;;;;21.30;8.80;;;19.50;98.00;;;;;;5033429;28;20781;-59
2023/05/23 07:35:07;;;;;;;23.20;10.83;;;19.70;98.00;;;;;;5033330;28;20458;-59
2023/05/23 07:37:34;;;;;;;27.30;11.17;;;20.00;98.00;;;;;;5033284;28;20470;-60
2023/05/23 07:40:01;;;;;;;27.90;11.73;;;20.20;98.00;;;;;;5033309;28;20478;-60
2023/05/23 07:42:28;;;;;;;30.20;13.60;;;20.20;98.00;;;;;;5033413;28;20463;-62
2023/05/23 07:44:55;;;;;;;32.87;14.30;;;20.30;98.00;;;;;;5033249;28;20451;-60
2023/05/23 07:47:23;;;;;;;39.57;14.93;;;20.30;98.00;;;;;;5033109;28;20478;-59
2023/05/23 07:49:52;;;;;;;32.17;13.53;;;20.10;98.00;;;;;;5032989;28;20457;-60
2023/05/23 07:52:26;;;;;;;37.63;14.17;;;19.90;98.00;;;;;;5033122;28;20454;-59
2023/05/23 07:54:55;;;;;;;31.37;14.57;;;19.80;98.00;;;;;;5032162;28;21022;-59
2023/05/23 07:57:23;;;;;;;30.60;14.47;;;19.70;98.00;;;;;;5032484;28;20941;-60
2023/05/23 07:59:51;;;;;;;38.47;14.50;;;19.60;98.00;;;;;;5032874;28;20458;-59
2023/05/23 08:02:18;;;;;;;33.67;13.97;;;19.30;98.00;;;;;;5032637;28;20480;-60
2023/05/23 08:04:47;;;;;;;32.07;14.30;;;19.10;98.00;;;;;;5032584;28;20462;-59
2023/05/23 08:07:15;;;;;;;33.63;14.60;;;19.10;98.00;;;;;;5032289;28;20849;-59
2023/05/23 08:09:42;;;;;;;33.87;14.07;;;18.90;98.00;;;;;;5032582;28;20945;-61
2023/05/23 08:12:09;;;;;;;33.70;12.80;;;18.80;98.00;;;;;;5032542;28;20458;-60
2023/05/23 08:14:37;;;;;;;31.70;14.10;;;18.90;98.00;;;;;;5032835;28;20961;-60
2023/05/23 08:17:04;;;;;;;35.00;13.60;;;19.00;98.00;;;;;;5032602;28;20467;-59
2023/05/23 08:19:31;;;;;;;34.77;14.27;;;19.10;98.00;;;;;;5032451;28;20454;-59
2023/05/23 08:21:58;;;;;;;34.00;13.63;;;19.20;98.00;;;;;;5032393;28;20463;-59
2023/05/23 08:24:29;;;;;;;34.80;13.60;;;19.10;98.00;;;;;;5031908;28;20466;-59
2023/05/23 08:26:56;;;;;;;32.93;13.43;;;19.10;98.00;;;;;;5032127;28;20582;-59
2023/05/23 08:29:23;;;;;;;31.87;13.20;;;19.20;98.00;;;;;;5032062;28;20858;-59
2023/05/23 08:31:50;;;;;;;29.33;13.80;;;19.20;98.00;;;;;;5031986;28;20455;-59
2023/05/23 08:34:17;;;;;;;32.07;12.10;;;19.10;98.00;;;;;;5032115;28;20509;-59
2023/05/23 08:36:44;;;;;;;24.63;10.50;;;19.10;98.00;;;;;;5032003;28;20462;-59
2023/05/23 08:39:11;;;;;;;29.10;12.07;;;19.20;98.00;;;;;;5031414;28;20455;-60
2023/05/23 08:41:40;;;;;;;27.83;12.10;;;19.20;98.00;;;;;;5032009;28;20508;-60
2023/05/23 08:44:07;;;;;;;28.00;12.03;;;19.20;98.00;;;;;;5031836;28;20458;-60
2023/05/23 08:46:40;;;;;;;35.70;10.90;;;19.10;98.00;;;;;;5031748;28;20459;-61
2023/05/23 08:49:08;;;;;;;32.10;11.10;;;19.20;98.00;;;;;;5031674;28;20549;-59
2023/05/23 08:51:37;;;;;;;24.37;11.37;;;19.30;98.00;;;;;;5030460;28;20855;-59
2023/05/23 08:54:08;;;;;;;29.80;12.70;;;19.30;98.00;;;;;;5031616;28;20477;-59
2023/05/23 08:56:35;;;;;;;23.30;10.53;;;19.30;98.00;;;;;;5030626;28;20486;-59
2023/05/23 08:59:05;;;;;;;26.93;11.90;;;19.30;98.00;;;;;;5031688;28;20536;-60
2023/05/23 09:01:33;;;;;;;28.90;11.80;;;19.20;98.00;;;;;;5031863;28;20462;-59
2023/05/23 09:04:03;;;;;;;27.73;11.57;;;19.20;98.00;;;;;;5031578;28;20807;-59
2023/05/23 09:06:31;;;;;;;21.50;10.10;;;19.30;98.00;;;;;;5031742;28;20454;-60
2023/05/23 09:08:58;;;;;;;28.77;11.37;;;19.30;98.00;;;;;;5031765;28;20935;-59
2023/05/23 09:11:25;;;;;;;26.03;11.17;;;19.30;98.00;;;;;;5031737;28;20462;-59
2023/05/23 09:13:52;;;;;;;23.30;11.40;;;19.30;98.00;;;;;;5031410;28;20455;-59
2023/05/23 09:16:21;;;;;;;26.20;12.20;;;19.40;98.00;;;;;;5030299;28;20464;-60
2023/05/23 09:18:48;;;;;;;21.10;10.40;;;19.40;98.00;;;;;;5029667;28;20498;-59
2023/05/23 09:21:15;;;;;;;26.27;10.97;;;19.50;98.00;;;;;;5030109;28;20972;-59
2023/05/23 09:23:43;;;;;;;24.33;10.20;;;19.50;98.00;;;;;;5031327;28;20461;-59
2023/05/23 09:26:12;;;;;;;22.70;10.47;;;19.50;98.00;;;;;;5029758;28;20455;-59
2023/05/23 09:28:42;;;;;;;23.70;10.23;;;19.70;98.00;;;;;;5045175;28;21062;-59
2023/05/23 09:31:10;;;;;;;22.57;10.50;;;19.90;98.00;;;;;;5051339;28;20481;-59
2023/05/23 09:36:35;;;;;;;24.90;10.00;;;20.10;98.00;;;;;;5150534;27;21102;-59
2023/05/23 09:39:04;;;;;;;22.30;10.50;;;20.20;98.00;;;;;;5129593;27;20462;-60
2023/05/23 09:41:34;;;;;;;24.30;9.77;;;20.30;98.00;;;;;;5129958;27;20454;-59
2023/05/23 09:44:06;;;;;;;22.30;9.30;;;20.10;98.00;;;;;;5129523;28;20457;-59
2023/05/23 09:46:36;;;;;;;21.17;10.30;;;20.00;98.00;;;;;;5129224;27;20450;-60
2023/05/23 09:49:03;;;;;;;22.30;9.80;;;20.00;98.00;;;;;;5128736;27;20481;-59
2023/05/23 09:51:32;;;;;;;27.53;10.80;;;19.80;98.00;;;;;;5129620;27;20477;-59
2023/05/23 09:56:36;;;;;;;21.77;9.53;;;19.60;98.00;;;;;;5046535;28;21025;-65
2023/05/23 09:59:07;;;;;;;24.87;11.20;;;19.70;98.00;;;;;;5048921;28;20472;-65
2023/05/23 10:01:36;;;;;;;24.27;10.57;;;19.60;98.00;;;;;;5048980;28;20536;-65
2023/05/23 10:04:06;;;;;;;20.93;9.77;;;19.80;98.00;;;;;;5048517;28;20461;-65
2023/05/23 10:06:41;;;;;;;22.37;9.87;;;19.90;98.00;;;;;;5049002;28;20453;-66
2023/05/23 10:09:14;;;;;;;17.93;8.90;;;20.10;98.00;;;;;;5048662;28;20464;-66
2023/05/23 10:12:13;;;;;;;19.90;9.10;;;20.20;98.00;;;;;;5048630;28;20944;-66
2023/05/23 10:14:49;;;;;;;17.90;8.43;;;20.20;98.00;;;;;;5046208;28;20485;-66
2023/05/23 10:17:21;;;;;;;15.50;7.80;;;20.30;98.00;;;;;;5048436;28;20515;-66
2023/05/23 10:19:56;;;;;;;19.17;8.97;;;20.40;98.00;;;;;;5048541;28;20458;-66
2023/05/23 10:22:26;;;;;;;17.93;8.60;;;20.60;98.00;;;;;;5048442;28;20496;-66
2023/05/23 10:24:53;;;;;;;18.43;8.67;;;20.70;98.00;;;;;;5048488;28;20508;-66
2023/05/23 10:27:21;;;;;;;17.80;8.43;;;20.60;98.00;;;;;;5047810;28;20497;-65
2023/05/23 10:29:48;;;;;;;17.10;8.30;;;20.60;98.00;;;;;;5047869;28;20457;-65
2023/05/23 10:32:16;;;;;;;14.93;7.43;;;20.60;98.00;;;;;;5063597;28;21233;-66
2023/05/23 10:35:02;;;;;;;18.80;8.73;;;20.60;98.00;;;;;;5067289;28;20477;-66
2023/05/23 10:37:40;;;;;;;18.23;8.27;;;20.70;98.00;;;;;;5048575;28;20471;-66
2023/05/23 10:40:13;;;;;;;18.03;7.70;;;21.10;98.00;;;;;;5047425;28;20520;-66
2023/05/23 10:42:51;;;;;;;15.20;7.50;;;21.30;98.00;;;;;;5047048;28;20462;-66
2023/05/23 10:45:19;;;;;;;16.90;7.77;;;21.50;98.00;;;;;;5014712;28;21156;-66
2023/05/23 10:47:48;;;;;;;15.20;7.07;;;21.70;98.00;;;;;;5035427;28;20823;-66
2023/05/23 10:50:17;;;;;;;16.20;7.90;;;21.60;98.00;;;;;;5034804;28;20466;-66
2023/05/23 10:52:45;;;;;;;16.73;8.00;;;21.50;98.00;;;;;;5035075;28;20458;-65
2023/05/23 10:55:17;;;;;;;12.67;6.50;;;21.40;98.00;;;;;;5034715;28;20835;-66
2023/05/23 10:57:44;;;;;;;15.13;7.43;;;21.60;98.00;;;;;;5017035;28;20541;-65
2023/05/23 11:00:16;;;;;;;16.40;8.13;;;21.80;98.00;;;;;;5034280;28;20459;-65
2023/05/23 11:02:55;;;;;;;14.63;7.77;;;22.00;98.00;;;;;;5034268;28;20458;-65
2023/05/23 11:05:27;;;;;;;15.10;7.67;;;21.80;98.00;;;;;;5034347;28;20545;-65
2023/05/23 11:08:16;;;;;;;14.73;7.30;;;22.00;98.00;;;;;;5034268;28;20459;-65
2023/05/23 11:10:59;;;;;;;18.17;7.57;;;22.10;98.00;;;;;;5034228;28;20530;-65
2023/05/23 11:13:46;;;;;;;17.10;7.63;;;22.00;98.00;;;;;;5034094;28;20466;-65
2023/05/23 11:16:27;;;;;;;16.10;7.87;;;21.70;98.00;;;;;;5033830;28;20572;-65
2023/05/23 11:19:24;;;;;;;16.63;7.70;;;21.50;98.00;;;;;;5034053;28;20463;-65
2023/05/23 11:21:53;;;;;;;16.90;7.90;;;21.30;98.00;;;;;;5033881;28;20457;-65
2023/05/23 11:24:25;;;;;;;13.97;7.13;;;21.10;98.00;;;;;;5033946;28;20455;-65
2023/05/23 11:26:54;;;;;;;14.60;7.23;;;21.00;98.00;;;;;;5033904;28;20455;-66
2023/05/23 11:29:21;;;;;;;16.60;7.57;;;20.80;98.00;;;;;;5033946;28;20541;-65
2023/05/23 11:31:48;;;;;;;12.83;6.73;;;20.70;98.00;;;;;;5016580;28;20873;-65
2023/05/23 11:34:16;;;;;;;15.20;7.53;;;20.70;98.00;;;;;;5034013;28;20508;-64
2023/05/23 11:36:43;;;;;;;15.00;7.30;;;20.60;98.00;;;;;;5016191;28;20485;-65
2023/05/23 11:39:11;;;;;;;16.53;7.67;;;20.60;98.00;;;;;;5033920;28;20462;-65
2023/05/23 11:41:41;;;;;;;13.77;6.80;;;20.70;98.00;;;;;;5034117;28;20818;-65
2023/05/23 11:44:12;;;;;;;15.10;7.67;;;20.70;98.00;;;;;;5033707;28;20459;-65
2023/05/23 11:46:40;;;;;;;18.63;8.17;;;20.80;98.00;;;;;;5033894;28;20473;-65
2023/05/23 11:49:16;;;;;;;16.70;8.00;;;20.90;98.00;;;;;;5033514;28;20545;-65
2023/05/23 11:51:45;;;;;;;14.30;7.17;;;21.00;98.00;;;;;;5033674;28;20897;-65
2023/05/23 11:54:12;;;;;;;13.90;7.10;;;21.10;98.00;;;;;;5033441;28;20797;-65
2023/05/23 11:56:41;;;;;;;13.90;7.00;;;21.00;98.00;;;;;;5032935;28;20486;-65
2023/05/23 11:59:09;;;;;;;15.03;7.60;;;21.00;98.00;;;;;;5032053;28;20477;-65
2023/05/23 12:01:37;;;;;;;14.73;7.10;;;21.00;98.00;;;;;;5033417;28;20478;-65
2023/05/23 12:04:11;;;;;;;14.70;7.30;;;21.10;98.00;;;;;;5015541;28;20512;-65
2023/05/23 12:06:40;;;;;;;12.93;7.07;;;21.20;98.00;;;;;;5016130;28;20542;-65
2023/05/23 12:09:07;;;;;;;13.40;6.50;;;21.30;98.00;;;;;;5032023;28;20526;-65
2023/05/23 12:11:35;;;;;;;16.17;7.30;;;21.30;98.00;;;;;;5033119;28;20459;-65
2023/05/23 12:14:05;;;;;;;11.90;6.03;;;21.40;98.00;;;;;;5032893;28;20553;-63
2023/05/23 12:16:34;;;;;;;13.60;6.27;;;21.40;98.00;;;;;;5032735;28;20540;-63
2023/05/23 12:19:02;;;;;;;10.77;5.63;;;21.60;98.00;;;;;;5032843;28;20482;-63
2023/05/23 12:21:41;;;;;;;12.57;6.27;;;21.80;98.00;;;;;;5015184;28;20466;-63
2023/05/23 12:24:19;;;;;;;13.50;6.83;;;22.00;98.00;;;;;;5032712;28;20462;-63
2023/05/23 12:26:50;;;;;;;10.73;6.00;;;22.30;98.00;;;;;;5032855;28;20466;-66
2023/05/23 12:29:21;;;;;;;13.77;6.57;;;22.50;98.00;;;;;;5032446;28;20454;-66
2023/05/23 12:31:52;;;;;;;13.00;6.37;;;22.50;98.00;;;;;;5032866;28;20505;-66
2023/05/23 12:34:21;;;;;;;11.70;6.70;;;22.40;98.00;;;;;;5032365;28;20501;-66
2023/05/23 12:36:49;;;;;;;10.77;5.90;;;22.40;98.00;;;;;;5032707;28;20514;-66
2023/05/23 12:39:16;;;;;;;11.97;6.40;;;22.30;98.00;;;;;;5032665;28;20923;-66
2023/05/23 12:41:44;;;;;;;13.10;5.63;;;22.10;98.00;;;;;;5032713;28;20932;-66
2023/05/23 12:44:15;;;;;;;12.43;6.43;;;22.10;98.00;;;;;;5015087;28;20466;-66
2023/05/23 12:46:43;;;;;;;17.20;7.40;;;22.20;98.00;;;;;;5032590;28;20474;-66